sensor_id;sensor_type;location;lat;lon;timestamp;P1;durP1;ratioP1;P2;durP2;ratioP2
48987;SDS011;34799;51.440;-2.534;2023-07-13T00:02:18;6.50;;;1.15;;
48987;SDS011;34799;51.440;-2.534;2023-07-13T00:04:45;8.23;;;1.00;;
48987;SDS011;34799;51.440;-2.534;2023-07-13T00:07:13;7.95;;;1.00;;
48987;SDS011;34799;51.440;-2.534;2023-07-13T00:09:41;8.30;;;1.63;;
48987;SDS011;34799;51.440;-2.534;2023-07-13T00:15:13;6.63;;;1.20;;
48987;SDS011;34799;51.440;-2.534;2023-07-13T00:17:53;5.22;;;0.98;;
48987;SDS011;34799;51.440;-2.534;2023-07-13T00:20:22;8.77;;;1.70;;
48987;SDS011;34799;51.440;-2.534;2023-07-13T00:22:52;4.38;;;1.17;;
48987;SDS011;34799;51.440;-2.534;2023-07-13T00:25:23;5.50;;;1.38;;
48987;SDS011;34799;51.440;-2.534;2023-07-13T00:27:50;4.57;;;1.15;;
48987;SDS011;34799;51.440;-2.534;2023-07-13T00:30:17;6.07;;;1.20;;
48987;SDS011;34799;51.440;-2.534;2023-07-13T00:32:44;4.90;;;1.00;;
48987;SDS011;34799;51.440;-2.534;2023-07-13T00:35:13;9.90;;;2.53;;
48987;SDS011;34799;51.440;-2.534;2023-07-13T00:37:41;6.50;;;1.40;;
48987;SDS011;34799;51.440;-2.534;2023-07-13T00:40:10;7.68;;;1.38;;
48987;SDS011;34799;51.440;-2.534;2023-07-13T00:42:40;6.65;;;1.50;;
48987;SDS011;34799;51.440;-2.534;2023-07-13T00:47:39;8.38;;;1.95;;
48987;SDS011;34799;51.440;-2.534;2023-07-13T00:50:10;7.18;;;1.60;;
48987;SDS011;34799;51.440;-2.534;2023-07-13T00:52:41;3.67;;;1.27;;
48987;SDS011;34799;51.440;-2.534;2023-07-13T00:55:11;7.93;;;1.20;;
48987;SDS011;34799;51.440;-2.534;2023-07-13T00:57:41;8.60;;;1.48;;
48987;SDS011;34799;51.440;-2.534;2023-07-13T01:00:10;6.63;;;1.77;;
48987;SDS011;34799;51.440;-2.534;2023-07-13T01:02:39;4.75;;;1.40;;
48987;SDS011;34799;51.440;-2.534;2023-07-13T01:05:09;4.70;;;1.40;;
48987;SDS011;34799;51.440;-2.534;2023-07-13T01:07:41;6.22;;;1.50;;
48987;SDS011;34799;51.440;-2.534;2023-07-13T01:10:11;5.97;;;1.60;;
48987;SDS011;34799;51.440;-2.534;2023-07-13T01:12:39;7.53;;;1.17;;
48987;SDS011;34799;51.440;-2.534;2023-07-13T01:18:07;6.07;;;1.42;;
48987;SDS011;34799;51.440;-2.534;2023-07-13T01:20:37;7.43;;;1.65;;
48987;SDS011;34799;51.440;-2.534;2023-07-13T01:23:09;3.83;;;1.17;;
48987;SDS011;34799;51.440;-2.534;2023-07-13T01:25:39;4.80;;;1.65;;
48987;SDS011;34799;51.440;-2.534;2023-07-13T01:28:07;5.07;;;1.33;;
48987;SDS011;34799;51.440;-2.534;2023-07-13T01:30:38;6.97;;;1.30;;
48987;SDS011;34799;51.440;-2.534;2023-07-13T01:33:07;6.05;;;1.50;;
48987;SDS011;34799;51.440;-2.534;2023-07-13T01:35:36;11.93;;;1.90;;
48987;SDS011;34799;51.440;-2.534;2023-07-13T01:38:04;8.15;;;1.55;;
48987;SDS011;34799;51.440;-2.534;2023-07-13T01:40:31;7.03;;;1.58;;
48987;SDS011;34799;51.440;-2.534;2023-07-13T01:43:00;4.53;;;1.55;;
48987;SDS011;34799;51.440;-2.534;2023-07-13T01:45:27;7.15;;;1.40;;
48987;SDS011;34799;51.440;-2.534;2023-07-13T01:47:54;4.07;;;1.23;;
48987;SDS011;34799;51.440;-2.534;2023-07-13T01:50:22;6.40;;;1.50;;
48987;SDS011;34799;51.440;-2.534;2023-07-13T01:52:49;7.25;;;1.25;;
48987;SDS011;34799;51.440;-2.534;2023-07-13T01:55:16;6.38;;;1.60;;
48987;SDS011;34799;51.440;-2.534;2023-07-13T01:57:43;3.92;;;1.17;;
48987;SDS011;34799;51.440;-2.534;2023-07-13T02:00:11;2.75;;;1.08;;
48987;SDS011;34799;51.440;-2.534;2023-07-13T02:02:45;3.75;;;1.58;;
48987;SDS011;34799;51.440;-2.534;2023-07-13T02:05:13;5.28;;;1.00;;
48987;SDS011;34799;51.440;-2.534;2023-07-13T02:07:41;5.10;;;1.60;;
48987;SDS011;34799;51.440;-2.534;2023-07-13T02:10:09;2.75;;;1.00;;
48987;SDS011;34799;51.440;-2.534;2023-07-13T02:12:38;2.97;;;1.30;;
48987;SDS011;34799;51.440;-2.534;2023-07-13T02:15:07;2.88;;;1.00;;
48987;SDS011;34799;51.440;-2.534;2023-07-13T02:17:35;3.28;;;0.95;;
48987;SDS011;34799;51.440;-2.534;2023-07-13T02:20:03;6.03;;;1.20;;
48987;SDS011;34799;51.440;-2.534;2023-07-13T02:22:31;6.85;;;1.20;;
48987;SDS011;34799;51.440;-2.534;2023-07-13T02:24:59;2.85;;;0.70;;
48987;SDS011;34799;51.440;-2.534;2023-07-13T02:27:26;6.43;;;1.15;;
48987;SDS011;34799;51.440;-2.534;2023-07-13T02:29:53;3.05;;;1.00;;
48987;SDS011;34799;51.440;-2.534;2023-07-13T02:32:21;3.22;;;1.13;;
48987;SDS011;34799;51.440;-2.534;2023-07-13T02:34:51;4.93;;;1.00;;
48987;SDS011;34799;51.440;-2.534;2023-07-13T02:37:20;5.80;;;0.90;;
48987;SDS011;34799;51.440;-2.534;2023-07-13T02:39:48;5.32;;;0.98;;
48987;SDS011;34799;51.440;-2.534;2023-07-13T02:42:15;4.00;;;0.98;;
48987;SDS011;34799;51.440;-2.534;2023-07-13T02:44:43;3.50;;;1.13;;
48987;SDS011;34799;51.440;-2.534;2023-07-13T02:47:11;5.45;;;1.50;;
48987;SDS011;34799;51.440;-2.534;2023-07-13T02:49:39;3.35;;;1.48;;
48987;SDS011;34799;51.440;-2.534;2023-07-13T02:52:06;3.50;;;1.23;;
48987;SDS011;34799;51.440;-2.534;2023-07-13T02:54:34;5.35;;;1.20;;
48987;SDS011;34799;51.440;-2.534;2023-07-13T02:57:01;8.00;;;1.65;;
48987;SDS011;34799;51.440;-2.534;2023-07-13T02:59:28;7.05;;;0.88;;
48987;SDS011;34799;51.440;-2.534;2023-07-13T03:01:55;6.00;;;1.00;;
48987;SDS011;34799;51.440;-2.534;2023-07-13T03:04:22;4.35;;;0.95;;
48987;SDS011;34799;51.440;-2.534;2023-07-13T03:06:49;3.97;;;1.10;;
48987;SDS011;34799;51.440;-2.534;2023-07-13T03:09:17;4.60;;;1.00;;
48987;SDS011;34799;51.440;-2.534;2023-07-13T03:11:53;6.25;;;1.77;;
48987;SDS011;34799;51.440;-2.534;2023-07-13T03:14:26;8.38;;;0.93;;
48987;SDS011;34799;51.440;-2.534;2023-07-13T03:16:53;5.38;;;1.42;;
48987;SDS011;34799;51.440;-2.534;2023-07-13T03:19:24;5.57;;;1.08;;
48987;SDS011;34799;51.440;-2.534;2023-07-13T03:21:52;4.65;;;1.42;;
48987;SDS011;34799;51.440;-2.534;2023-07-13T03:24:19;4.43;;;1.13;;
48987;SDS011;34799;51.440;-2.534;2023-07-13T03:26:47;5.43;;;1.20;;
48987;SDS011;34799;51.440;-2.534;2023-07-13T03:29:14;6.22;;;0.90;;
48987;SDS011;34799;51.440;-2.534;2023-07-13T03:31:42;7.00;;;1.38;;
48987;SDS011;34799;51.440;-2.534;2023-07-13T03:34:09;3.53;;;1.00;;
48987;SDS011;34799;51.440;-2.534;2023-07-13T03:36:37;7.38;;;1.48;;
48987;SDS011;34799;51.440;-2.534;2023-07-13T03:39:10;3.40;;;1.10;;
48987;SDS011;34799;51.440;-2.534;2023-07-13T03:41:44;2.30;;;0.90;;
48987;SDS011;34799;51.440;-2.534;2023-07-13T03:44:12;6.93;;;1.17;;
48987;SDS011;34799;51.440;-2.534;2023-07-13T03:46:39;2.90;;;1.05;;
48987;SDS011;34799;51.440;-2.534;2023-07-13T03:49:07;4.47;;;1.10;;
48987;SDS011;34799;51.440;-2.534;2023-07-13T03:51:35;5.82;;;1.13;;
48987;SDS011;34799;51.440;-2.534;2023-07-13T03:54:04;5.43;;;1.80;;
48987;SDS011;34799;51.440;-2.534;2023-07-13T03:56:31;3.47;;;1.27;;
48987;SDS011;34799;51.440;-2.534;2023-07-13T03:59:02;5.20;;;1.33;;
48987;SDS011;34799;51.440;-2.534;2023-07-13T04:01:30;5.07;;;1.33;;
48987;SDS011;34799;51.440;-2.534;2023-07-13T04:03:57;6.68;;;1.13;;
48987;SDS011;34799;51.440;-2.534;2023-07-13T04:06:27;2.17;;;0.90;;
48987;SDS011;34799;51.440;-2.534;2023-07-13T04:08:57;7.10;;;1.38;;
48987;SDS011;34799;51.440;-2.534;2023-07-13T04:11:29;3.30;;;1.40;;
48987;SDS011;34799;51.440;-2.534;2023-07-13T04:13:59;3.40;;;1.60;;
48987;SDS011;34799;51.440;-2.534;2023-07-13T04:16:26;4.10;;;1.15;;
48987;SDS011;34799;51.440;-2.534;2023-07-13T04:18:54;6.43;;;0.93;;
48987;SDS011;34799;51.440;-2.534;2023-07-13T04:21:29;6.78;;;1.95;;
48987;SDS011;34799;51.440;-2.534;2023-07-13T04:23:58;3.50;;;1.20;;
48987;SDS011;34799;51.440;-2.534;2023-07-13T04:26:25;6.57;;;1.33;;
48987;SDS011;34799;51.440;-2.534;2023-07-13T04:28:52;6.30;;;2.28;;
48987;SDS011;34799;51.440;-2.534;2023-07-13T04:31:19;4.35;;;1.15;;
48987;SDS011;34799;51.440;-2.534;2023-07-13T04:33:47;5.05;;;1.30;;
48987;SDS011;34799;51.440;-2.534;2023-07-13T04:36:16;4.80;;;1.10;;
48987;SDS011;34799;51.440;-2.534;2023-07-13T04:38:44;4.50;;;1.30;;
48987;SDS011;34799;51.440;-2.534;2023-07-13T04:41:12;5.10;;;1.00;;
48987;SDS011;34799;51.440;-2.534;2023-07-13T04:43:41;6.45;;;1.88;;
48987;SDS011;34799;51.440;-2.534;2023-07-13T04:46:10;6.82;;;1.25;;
48987;SDS011;34799;51.440;-2.534;2023-07-13T04:48:38;7.68;;;1.10;;
48987;SDS011;34799;51.440;-2.534;2023-07-13T04:51:06;4.40;;;1.00;;
48987;SDS011;34799;51.440;-2.534;2023-07-13T04:53:34;7.22;;;1.77;;
48987;SDS011;34799;51.440;-2.534;2023-07-13T04:56:04;7.85;;;1.98;;
48987;SDS011;34799;51.440;-2.534;2023-07-13T04:58:31;6.90;;;1.58;;
48987;SDS011;34799;51.440;-2.534;2023-07-13T05:01:03;7.30;;;1.98;;
48987;SDS011;34799;51.440;-2.534;2023-07-13T05:03:33;7.60;;;1.30;;
48987;SDS011;34799;51.440;-2.534;2023-07-13T05:06:03;3.33;;;1.20;;
48987;SDS011;34799;51.440;-2.534;2023-07-13T05:08:32;5.18;;;1.50;;
48987;SDS011;34799;51.440;-2.534;2023-07-13T05:10:59;5.85;;;1.25;;
48987;SDS011;34799;51.440;-2.534;2023-07-13T05:13:27;6.53;;;1.52;;
48987;SDS011;34799;51.440;-2.534;2023-07-13T05:16:05;10.15;;;1.58;;
48987;SDS011;34799;51.440;-2.534;2023-07-13T05:18:35;5.18;;;1.27;;
48987;SDS011;34799;51.440;-2.534;2023-07-13T05:21:05;3.22;;;1.05;;
48987;SDS011;34799;51.440;-2.534;2023-07-13T05:23:35;5.85;;;0.95;;
48987;SDS011;34799;51.440;-2.534;2023-07-13T05:26:03;14.48;;;2.50;;
48987;SDS011;34799;51.440;-2.534;2023-07-13T05:28:33;6.25;;;1.23;;
48987;SDS011;34799;51.440;-2.534;2023-07-13T05:31:00;4.75;;;1.35;;
48987;SDS011;34799;51.440;-2.534;2023-07-13T05:33:28;6.18;;;2.05;;
48987;SDS011;34799;51.440;-2.534;2023-07-13T05:35:55;4.82;;;1.67;;
48987;SDS011;34799;51.440;-2.534;2023-07-13T05:38:22;4.53;;;1.10;;
48987;SDS011;34799;51.440;-2.534;2023-07-13T05:40:49;5.40;;;1.27;;
48987;SDS011;34799;51.440;-2.534;2023-07-13T05:43:17;5.43;;;1.45;;
48987;SDS011;34799;51.440;-2.534;2023-07-13T05:45:44;4.75;;;1.13;;
48987;SDS011;34799;51.440;-2.534;2023-07-13T05:48:11;5.90;;;1.83;;
48987;SDS011;34799;51.440;-2.534;2023-07-13T05:50:38;5.68;;;1.33;;
48987;SDS011;34799;51.440;-2.534;2023-07-13T05:53:05;4.55;;;1.50;;
48987;SDS011;34799;51.440;-2.534;2023-07-13T05:55:32;5.60;;;1.27;;
48987;SDS011;34799;51.440;-2.534;2023-07-13T05:58:00;7.32;;;0.90;;
48987;SDS011;34799;51.440;-2.534;2023-07-13T06:00:28;8.75;;;1.15;;
48987;SDS011;34799;51.440;-2.534;2023-07-13T06:02:55;7.72;;;1.60;;
48987;SDS011;34799;51.440;-2.534;2023-07-13T06:05:23;4.60;;;1.73;;
48987;SDS011;34799;51.440;-2.534;2023-07-13T06:07:50;5.18;;;1.10;;
48987;SDS011;34799;51.440;-2.534;2023-07-13T06:10:17;8.50;;;2.42;;
48987;SDS011;34799;51.440;-2.534;2023-07-13T06:12:44;7.60;;;1.50;;
48987;SDS011;34799;51.440;-2.534;2023-07-13T06:15:11;4.10;;;1.50;;
48987;SDS011;34799;51.440;-2.534;2023-07-13T06:17:38;6.38;;;1.20;;
48987;SDS011;34799;51.440;-2.534;2023-07-13T06:20:06;3.25;;;1.60;;
48987;SDS011;34799;51.440;-2.534;2023-07-13T06:22:33;4.97;;;0.90;;
48987;SDS011;34799;51.440;-2.534;2023-07-13T06:25:00;7.03;;;1.50;;
48987;SDS011;34799;51.440;-2.534;2023-07-13T06:27:27;3.60;;;1.60;;
48987;SDS011;34799;51.440;-2.534;2023-07-13T06:29:56;9.85;;;2.88;;
48987;SDS011;34799;51.440;-2.534;2023-07-13T06:32:23;3.95;;;1.00;;
48987;SDS011;34799;51.440;-2.534;2023-07-13T06:34:50;3.45;;;0.95;;
48987;SDS011;34799;51.440;-2.534;2023-07-13T06:37:18;3.33;;;1.17;;
48987;SDS011;34799;51.440;-2.534;2023-07-13T06:39:45;7.22;;;1.00;;
48987;SDS011;34799;51.440;-2.534;2023-07-13T06:42:12;6.10;;;1.50;;
48987;SDS011;34799;51.440;-2.534;2023-07-13T06:44:40;3.40;;;1.23;;
48987;SDS011;34799;51.440;-2.534;2023-07-13T06:47:08;7.63;;;1.27;;
48987;SDS011;34799;51.440;-2.534;2023-07-13T06:49:35;7.95;;;1.08;;
48987;SDS011;34799;51.440;-2.534;2023-07-13T06:52:02;5.93;;;1.08;;
48987;SDS011;34799;51.440;-2.534;2023-07-13T06:54:31;5.22;;;0.95;;
48987;SDS011;34799;51.440;-2.534;2023-07-13T06:57:00;3.15;;;0.60;;
48987;SDS011;34799;51.440;-2.534;2023-07-13T06:59:27;4.35;;;0.75;;
48987;SDS011;34799;51.440;-2.534;2023-07-13T07:01:55;4.07;;;0.80;;
48987;SDS011;34799;51.440;-2.534;2023-07-13T07:04:22;3.05;;;0.82;;
48987;SDS011;34799;51.440;-2.534;2023-07-13T07:06:49;4.75;;;1.30;;
48987;SDS011;34799;51.440;-2.534;2023-07-13T07:09:16;3.90;;;0.70;;
48987;SDS011;34799;51.440;-2.534;2023-07-13T07:11:43;5.85;;;0.80;;
48987;SDS011;34799;51.440;-2.534;2023-07-13T07:14:15;3.92;;;0.80;;
48987;SDS011;34799;51.440;-2.534;2023-07-13T07:16:44;4.13;;;0.95;;
48987;SDS011;34799;51.440;-2.534;2023-07-13T07:19:12;5.53;;;1.05;;
48987;SDS011;34799;51.440;-2.534;2023-07-13T07:21:41;2.45;;;0.75;;
48987;SDS011;34799;51.440;-2.534;2023-07-13T07:24:08;3.75;;;1.05;;
48987;SDS011;34799;51.440;-2.534;2023-07-13T07:26:35;1.25;;;0.63;;
48987;SDS011;34799;51.440;-2.534;2023-07-13T07:29:23;7.20;;;0.90;;
48987;SDS011;34799;51.440;-2.534;2023-07-13T07:31:55;4.00;;;1.00;;
48987;SDS011;34799;51.440;-2.534;2023-07-13T07:34:27;3.38;;;0.80;;
48987;SDS011;34799;51.440;-2.534;2023-07-13T07:36:56;3.45;;;0.65;;
48987;SDS011;34799;51.440;-2.534;2023-07-13T07:39:29;2.00;;;0.90;;
48987;SDS011;34799;51.440;-2.534;2023-07-13T07:41:56;3.70;;;0.98;;
48987;SDS011;34799;51.440;-2.534;2023-07-13T07:44:24;4.35;;;1.40;;
48987;SDS011;34799;51.440;-2.534;2023-07-13T07:46:51;3.65;;;1.27;;
48987;SDS011;34799;51.440;-2.534;2023-07-13T07:49:18;2.15;;;1.10;;
48987;SDS011;34799;51.440;-2.534;2023-07-13T07:51:46;3.80;;;1.20;;
48987;SDS011;34799;51.440;-2.534;2023-07-13T07:54:13;1.92;;;0.95;;
48987;SDS011;34799;51.440;-2.534;2023-07-13T07:56:43;5.20;;;0.88;;
48987;SDS011;34799;51.440;-2.534;2023-07-13T07:59:31;2.97;;;0.80;;
48987;SDS011;34799;51.440;-2.534;2023-07-13T08:02:18;1.83;;;1.02;;
48987;SDS011;34799;51.440;-2.534;2023-07-13T08:04:48;2.47;;;1.35;;
48987;SDS011;34799;51.440;-2.534;2023-07-13T08:07:18;3.13;;;1.30;;
48987;SDS011;34799;51.440;-2.534;2023-07-13T08:09:45;3.28;;;0.98;;
48987;SDS011;34799;51.440;-2.534;2023-07-13T08:12:14;1.52;;;0.70;;
48987;SDS011;34799;51.440;-2.534;2023-07-13T08:15:03;2.63;;;0.77;;
48987;SDS011;34799;51.440;-2.534;2023-07-13T08:17:31;4.30;;;0.70;;
48987;SDS011;34799;51.440;-2.534;2023-07-13T08:19:58;3.72;;;0.70;;
48987;SDS011;34799;51.440;-2.534;2023-07-13T08:22:26;4.78;;;0.70;;
48987;SDS011;34799;51.440;-2.534;2023-07-13T08:24:53;2.80;;;0.50;;
48987;SDS011;34799;51.440;-2.534;2023-07-13T08:27:25;4.53;;;0.60;;
48987;SDS011;34799;51.440;-2.534;2023-07-13T08:29:54;2.88;;;0.57;;
48987;SDS011;34799;51.440;-2.534;2023-07-13T08:32:22;1.13;;;0.50;;
48987;SDS011;34799;51.440;-2.534;2023-07-13T08:34:50;3.70;;;0.65;;
48987;SDS011;34799;51.440;-2.534;2023-07-13T08:37:17;2.35;;;0.60;;
48987;SDS011;34799;51.440;-2.534;2023-07-13T08:39:45;2.90;;;1.10;;
48987;SDS011;34799;51.440;-2.534;2023-07-13T08:42:22;6.93;;;1.40;;
48987;SDS011;34799;51.440;-2.534;2023-07-13T08:48:05;5.53;;;1.80;;
48987;SDS011;34799;51.440;-2.534;2023-07-13T08:50:44;3.22;;;1.40;;
48987;SDS011;34799;51.440;-2.534;2023-07-13T08:53:25;1.40;;;1.00;;
48987;SDS011;34799;51.440;-2.534;2023-07-13T08:56:05;5.78;;;1.48;;
48987;SDS011;34799;51.440;-2.534;2023-07-13T08:58:44;4.72;;;1.70;;
48987;SDS011;34799;51.440;-2.534;2023-07-13T09:04:15;2.65;;;1.33;;
48987;SDS011;34799;51.440;-2.534;2023-07-13T09:09:34;3.30;;;0.90;;
48987;SDS011;34799;51.440;-2.534;2023-07-13T09:14:53;4.85;;;1.25;;
48987;SDS011;34799;51.440;-2.534;2023-07-13T09:17:36;3.75;;;0.57;;
48987;SDS011;34799;51.440;-2.534;2023-07-13T09:20:32;1.83;;;0.70;;
48987;SDS011;34799;51.440;-2.534;2023-07-13T09:23:03;2.80;;;0.70;;
48987;SDS011;34799;51.440;-2.534;2023-07-13T09:25:34;3.20;;;0.40;;
48987;SDS011;34799;51.440;-2.534;2023-07-13T09:28:08;2.33;;;0.60;;
48987;SDS011;34799;51.440;-2.534;2023-07-13T09:30:43;2.67;;;0.70;;
48987;SDS011;34799;51.440;-2.534;2023-07-13T09:33:12;1.25;;;0.40;;
48987;SDS011;34799;51.440;-2.534;2023-07-13T09:35:40;0.73;;;0.30;;
48987;SDS011;34799;51.440;-2.534;2023-07-13T09:46:38;3.95;;;0.50;;
48987;SDS011;34799;51.440;-2.534;2023-07-13T09:49:10;1.63;;;0.43;;
48987;SDS011;34799;51.440;-2.534;2023-07-13T09:51:39;1.50;;;0.40;;
48987;SDS011;34799;51.440;-2.534;2023-07-13T09:54:18;1.98;;;0.47;;
48987;SDS011;34799;51.440;-2.534;2023-07-13T09:56:48;1.48;;;0.30;;
48987;SDS011;34799;51.440;-2.534;2023-07-13T09:59:22;1.75;;;0.40;;
48987;SDS011;34799;51.440;-2.534;2023-07-13T10:01:59;2.13;;;0.70;;
48987;SDS011;34799;51.440;-2.534;2023-07-13T10:04:30;2.40;;;0.40;;
48987;SDS011;34799;51.440;-2.534;2023-07-13T10:07:08;1.80;;;0.60;;
48987;SDS011;34799;51.440;-2.534;2023-07-13T10:09:56;2.25;;;0.30;;
48987;SDS011;34799;51.440;-2.534;2023-07-13T10:12:28;1.95;;;0.52;;
48987;SDS011;34799;51.440;-2.534;2023-07-13T10:14:57;1.80;;;0.50;;
48987;SDS011;34799;51.440;-2.534;2023-07-13T10:17:34;2.13;;;0.40;;
48987;SDS011;34799;51.440;-2.534;2023-07-13T10:20:03;2.35;;;0.60;;
48987;SDS011;34799;51.440;-2.534;2023-07-13T10:22:44;2.20;;;0.50;;
48987;SDS011;34799;51.440;-2.534;2023-07-13T10:25:22;0.93;;;0.40;;
48987;SDS011;34799;51.440;-2.534;2023-07-13T10:27:52;5.28;;;0.38;;
48987;SDS011;34799;51.440;-2.534;2023-07-13T10:30:24;0.95;;;0.45;;
48987;SDS011;34799;51.440;-2.534;2023-07-13T10:32:57;2.35;;;0.38;;
48987;SDS011;34799;51.440;-2.534;2023-07-13T10:35:27;4.22;;;0.50;;
48987;SDS011;34799;51.440;-2.534;2023-07-13T10:38:04;1.00;;;0.30;;
48987;SDS011;34799;51.440;-2.534;2023-07-13T10:40:37;1.08;;;0.35;;
48987;SDS011;34799;51.440;-2.534;2023-07-13T10:43:36;2.15;;;0.40;;
48987;SDS011;34799;51.440;-2.534;2023-07-13T10:46:10;3.75;;;0.40;;
48987;SDS011;34799;51.440;-2.534;2023-07-13T10:48:40;0.55;;;0.30;;
48987;SDS011;34799;51.440;-2.534;2023-07-13T10:51:10;2.85;;;0.60;;
48987;SDS011;34799;51.440;-2.534;2023-07-13T10:53:40;1.23;;;0.40;;
48987;SDS011;34799;51.440;-2.534;2023-07-13T10:59:12;1.08;;;0.30;;
48987;SDS011;34799;51.440;-2.534;2023-07-13T11:01:48;3.83;;;0.50;;
48987;SDS011;34799;51.440;-2.534;2023-07-13T11:04:24;1.15;;;0.30;;
48987;SDS011;34799;51.440;-2.534;2023-07-13T11:06:56;4.32;;;0.50;;
48987;SDS011;34799;51.440;-2.534;2023-07-13T11:12:49;2.85;;;0.82;;
48987;SDS011;34799;51.440;-2.534;2023-07-13T11:15:13;4.80;;;0.40;;
48987;SDS011;34799;51.440;-2.534;2023-07-13T11:17:59;2.95;;;0.30;;
48987;SDS011;34799;51.440;-2.534;2023-07-13T11:20:32;3.35;;;0.35;;
48987;SDS011;34799;51.440;-2.534;2023-07-13T11:25:44;2.30;;;0.30;;
48987;SDS011;34799;51.440;-2.534;2023-07-13T11:33:20;1.42;;;0.30;;
48987;SDS011;34799;51.440;-2.534;2023-07-13T11:41:15;1.70;;;0.28;;
48987;SDS011;34799;51.440;-2.534;2023-07-13T11:43:54;1.38;;;0.30;;
48987;SDS011;34799;51.440;-2.534;2023-07-13T11:46:33;1.35;;;0.30;;
48987;SDS011;34799;51.440;-2.534;2023-07-13T11:49:04;3.13;;;1.00;;
48987;SDS011;34799;51.440;-2.534;2023-07-13T11:51:35;3.40;;;0.43;;
48987;SDS011;34799;51.440;-2.534;2023-07-13T11:54:15;3.78;;;0.30;;
48987;SDS011;34799;51.440;-2.534;2023-07-13T11:57:06;1.52;;;0.20;;
48987;SDS011;34799;51.440;-2.534;2023-07-13T11:59:50;4.78;;;0.30;;
48987;SDS011;34799;51.440;-2.534;2023-07-13T12:04:58;0.82;;;0.28;;
48987;SDS011;34799;51.440;-2.534;2023-07-13T12:07:30;0.60;;;0.20;;
48987;SDS011;34799;51.440;-2.534;2023-07-13T12:10:02;1.30;;;0.30;;
48987;SDS011;34799;51.440;-2.534;2023-07-13T12:12:30;1.73;;;0.30;;
48987;SDS011;34799;51.440;-2.534;2023-07-13T12:14:57;2.30;;;0.30;;
48987;SDS011;34799;51.440;-2.534;2023-07-13T12:17:24;2.22;;;0.20;;
48987;SDS011;34799;51.440;-2.534;2023-07-13T12:19:52;1.65;;;0.30;;
48987;SDS011;34799;51.440;-2.534;2023-07-13T12:22:20;3.42;;;0.45;;
48987;SDS011;34799;51.440;-2.534;2023-07-13T12:24:49;3.65;;;0.43;;
48987;SDS011;34799;51.440;-2.534;2023-07-13T12:27:20;2.70;;;0.20;;
48987;SDS011;34799;51.440;-2.534;2023-07-13T12:29:57;1.42;;;0.20;;
48987;SDS011;34799;51.440;-2.534;2023-07-13T12:32:26;1.30;;;0.30;;
48987;SDS011;34799;51.440;-2.534;2023-07-13T12:35:14;1.38;;;0.30;;
48987;SDS011;34799;51.440;-2.534;2023-07-13T12:37:42;2.78;;;0.30;;
48987;SDS011;34799;51.440;-2.534;2023-07-13T12:40:17;1.23;;;0.30;;
48987;SDS011;34799;51.440;-2.534;2023-07-13T12:42:49;2.83;;;0.45;;
48987;SDS011;34799;51.440;-2.534;2023-07-13T12:47:47;3.35;;;0.40;;
48987;SDS011;34799;51.440;-2.534;2023-07-13T12:50:17;2.42;;;0.30;;
48987;SDS011;34799;51.440;-2.534;2023-07-13T12:52:53;2.20;;;0.30;;
48987;SDS011;34799;51.440;-2.534;2023-07-13T12:55:23;4.88;;;0.35;;
48987;SDS011;34799;51.440;-2.534;2023-07-13T12:57:52;5.80;;;0.85;;
48987;SDS011;34799;51.440;-2.534;2023-07-13T13:00:29;4.75;;;0.45;;
48987;SDS011;34799;51.440;-2.534;2023-07-13T13:08:45;3.08;;;0.52;;
48987;SDS011;34799;51.440;-2.534;2023-07-13T13:11:18;7.50;;;0.80;;
48987;SDS011;34799;51.440;-2.534;2023-07-13T13:13:47;3.58;;;0.90;;
48987;SDS011;34799;51.440;-2.534;2023-07-13T13:18:59;1.58;;;0.35;;
48987;SDS011;34799;51.440;-2.534;2023-07-13T13:21:36;3.92;;;0.50;;
48987;SDS011;34799;51.440;-2.534;2023-07-13T13:24:09;2.25;;;0.30;;
48987;SDS011;34799;51.440;-2.534;2023-07-13T13:26:41;5.88;;;0.50;;
48987;SDS011;34799;51.440;-2.534;2023-07-13T13:29:13;2.85;;;0.50;;
48987;SDS011;34799;51.440;-2.534;2023-07-13T13:34:14;2.70;;;0.32;;
48987;SDS011;34799;51.440;-2.534;2023-07-13T13:36:43;2.08;;;0.50;;
48987;SDS011;34799;51.440;-2.534;2023-07-13T13:39:25;1.55;;;0.30;;
48987;SDS011;34799;51.440;-2.534;2023-07-13T13:42:00;3.97;;;0.30;;
48987;SDS011;34799;51.440;-2.534;2023-07-13T13:44:27;2.20;;;0.45;;
48987;SDS011;34799;51.440;-2.534;2023-07-13T13:46:54;2.08;;;0.20;;
48987;SDS011;34799;51.440;-2.534;2023-07-13T13:49:26;2.85;;;0.88;;
48987;SDS011;34799;51.440;-2.534;2023-07-13T13:51:54;4.43;;;0.52;;
48987;SDS011;34799;51.440;-2.534;2023-07-13T13:54:23;2.47;;;0.40;;
48987;SDS011;34799;51.440;-2.534;2023-07-13T13:56:52;3.50;;;0.32;;
48987;SDS011;34799;51.440;-2.534;2023-07-13T13:59:19;2.30;;;0.60;;
48987;SDS011;34799;51.440;-2.534;2023-07-13T14:01:47;3.72;;;0.60;;
48987;SDS011;34799;51.440;-2.534;2023-07-13T14:04:19;2.38;;;0.40;;
48987;SDS011;34799;51.440;-2.534;2023-07-13T14:06:49;4.70;;;0.90;;
48987;SDS011;34799;51.440;-2.534;2023-07-13T14:09:17;3.58;;;0.50;;
48987;SDS011;34799;51.440;-2.534;2023-07-13T14:11:46;3.42;;;0.85;;
48987;SDS011;34799;51.440;-2.534;2023-07-13T14:14:19;2.88;;;0.60;;
48987;SDS011;34799;51.440;-2.534;2023-07-13T14:16:49;4.28;;;0.82;;
48987;SDS011;34799;51.440;-2.534;2023-07-13T14:19:22;5.45;;;1.10;;
48987;SDS011;34799;51.440;-2.534;2023-07-13T14:21:51;2.22;;;0.60;;
48987;SDS011;34799;51.440;-2.534;2023-07-13T14:24:20;3.97;;;1.02;;
48987;SDS011;34799;51.440;-2.534;2023-07-13T14:26:47;3.25;;;0.85;;
48987;SDS011;34799;51.440;-2.534;2023-07-13T14:29:17;4.97;;;0.68;;
48987;SDS011;34799;51.440;-2.534;2023-07-13T14:31:47;2.65;;;0.82;;
48987;SDS011;34799;51.440;-2.534;2023-07-13T14:34:16;2.03;;;0.43;;
48987;SDS011;34799;51.440;-2.534;2023-07-13T14:36:49;5.32;;;0.60;;
48987;SDS011;34799;51.440;-2.534;2023-07-13T14:39:21;3.33;;;0.73;;
48987;SDS011;34799;51.440;-2.534;2023-07-13T14:41:51;3.67;;;0.80;;
48987;SDS011;34799;51.440;-2.534;2023-07-13T14:44:26;4.80;;;0.63;;
48987;SDS011;34799;51.440;-2.534;2023-07-13T14:46:56;2.33;;;0.60;;
48987;SDS011;34799;51.440;-2.534;2023-07-13T14:51:58;5.50;;;0.55;;
48987;SDS011;34799;51.440;-2.534;2023-07-13T14:54:32;3.30;;;0.70;;
48987;SDS011;34799;51.440;-2.534;2023-07-13T14:56:59;4.57;;;0.75;;
48987;SDS011;34799;51.440;-2.534;2023-07-13T14:59:27;5.80;;;1.30;;
48987;SDS011;34799;51.440;-2.534;2023-07-13T15:01:54;1.20;;;0.50;;
48987;SDS011;34799;51.440;-2.534;2023-07-13T15:04:22;5.63;;;0.70;;
48987;SDS011;34799;51.440;-2.534;2023-07-13T15:06:59;2.83;;;0.50;;
48987;SDS011;34799;51.440;-2.534;2023-07-13T15:09:30;3.50;;;0.50;;
48987;SDS011;34799;51.440;-2.534;2023-07-13T15:11:58;3.75;;;0.55;;
48987;SDS011;34799;51.440;-2.534;2023-07-13T15:14:25;2.60;;;0.50;;
48987;SDS011;34799;51.440;-2.534;2023-07-13T15:16:54;3.03;;;0.40;;
48987;SDS011;34799;51.440;-2.534;2023-07-13T15:19:22;3.67;;;0.77;;
48987;SDS011;34799;51.440;-2.534;2023-07-13T15:21:51;3.20;;;0.70;;
48987;SDS011;34799;51.440;-2.534;2023-07-13T15:24:21;3.30;;;0.60;;
48987;SDS011;34799;51.440;-2.534;2023-07-13T15:26:49;3.00;;;0.40;;
48987;SDS011;34799;51.440;-2.534;2023-07-13T15:29:18;4.22;;;0.50;;
48987;SDS011;34799;51.440;-2.534;2023-07-13T15:31:45;4.32;;;0.52;;
48987;SDS011;34799;51.440;-2.534;2023-07-13T15:34:16;3.58;;;0.70;;
48987;SDS011;34799;51.440;-2.534;2023-07-13T15:36:48;3.88;;;0.40;;
48987;SDS011;34799;51.440;-2.534;2023-07-13T15:39:16;1.98;;;0.47;;
48987;SDS011;34799;51.440;-2.534;2023-07-13T15:41:44;2.22;;;0.70;;
48987;SDS011;34799;51.440;-2.534;2023-07-13T15:46:57;2.60;;;0.63;;
48987;SDS011;34799;51.440;-2.534;2023-07-13T15:49:27;2.47;;;0.68;;
48987;SDS011;34799;51.440;-2.534;2023-07-13T15:51:54;3.25;;;0.65;;
48987;SDS011;34799;51.440;-2.534;2023-07-13T15:54:21;2.05;;;0.63;;
48987;SDS011;34799;51.440;-2.534;2023-07-13T15:56:52;3.03;;;0.80;;
48987;SDS011;34799;51.440;-2.534;2023-07-13T15:59:21;4.35;;;0.50;;
48987;SDS011;34799;51.440;-2.534;2023-07-13T16:01:49;1.85;;;0.60;;